Time;durP1;ratioP1;P1;durP2;ratioP2;P2;SDS_P1;SDS_P2;PMS_P1;PMS_P2;Temp;Humidity;BMP_temperature;BMP_pressure;BME280_temperature;BME280_humidity;BME280_pressure;Samples;Min_cycle;Max_cycle;Signal;HPM_P1;HPM_P2
2023/04/29 00:01:47;;;;;;;12.70;6.35;;;;;;;;;;5133868;27;20070;-65
2023/04/29 00:04:16;;;;;;;13.63;6.88;;;;;;;;;;5132966;27;20088;-65
2023/04/29 00:06:43;;;;;;;17.02;6.82;;;;;;;;;;5133736;27;20046;-66
2023/04/29 00:09:10;;;;;;;12.43;6.63;;;;;;;;;;5116398;27;20065;-65
2023/04/29 00:11:38;;;;;;;15.95;6.93;;;;;;;;;;5133794;27;20402;-65
2023/04/29 00:14:06;;;;;;;12.07;6.22;;;;;;;;;;5133989;27;20047;-65
2023/04/29 00:16:33;;;;;;;14.00;6.90;;;;;;;;;;5133615;27;20051;-65
2023/04/29 00:19:01;;;;;;;14.65;7.43;;;;;;;;;;5134674;27;20057;-66
2023/04/29 00:21:30;;;;;;;14.20;7.03;;;;;;;;;;5134931;27;20043;-65
2023/04/29 00:23:57;;;;;;;18.42;7.20;;;;;;;;;;5126915;27;20051;-65
2023/04/29 00:26:25;;;;;;;19.13;7.28;;;;;;;;;;5107739;27;20070;-65
2023/04/29 00:28:52;;;;;;;16.10;7.78;;;;;;;;;;5131981;27;20536;-66
2023/04/29 00:31:20;;;;;;;17.27;6.72;;;;;;;;;;5129814;27;20043;-66
2023/04/29 00:33:47;;;;;;;14.68;7.35;;;;;;;;;;5130405;27;20126;-66
2023/04/29 00:36:15;;;;;;;14.77;6.85;;;;;;;;;;5129391;27;20043;-65
2023/04/29 00:38:43;;;;;;;16.63;7.88;;;;;;;;;;5130357;27;20045;-65
2023/04/29 00:41:11;;;;;;;16.10;7.68;;;;;;;;;;5128838;27;20062;-65
2023/04/29 00:43:38;;;;;;;19.58;8.30;;;;;;;;;;5121267;27;20039;-65
2023/04/29 00:46:05;;;;;;;16.65;8.00;;;;;;;;;;5124775;27;20130;-65
2023/04/29 00:48:33;;;;;;;17.38;8.05;;;;;;;;;;5126677;27;20043;-65
2023/04/29 00:51:00;;;;;;;16.88;7.63;;;;;;;;;;5124940;27;20042;-65
2023/04/29 00:53:28;;;;;;;21.95;8.07;;;;;;;;;;5129223;27;20059;-65
2023/04/29 00:55:56;;;;;;;14.75;7.18;;;;;;;;;;5130879;27;20051;-65
2023/04/29 00:58:31;;;;;;;16.88;8.07;;;;;;;;;;5128503;27;20142;-65
2023/04/29 01:00:58;;;;;;;15.80;7.80;;;;;;;;;;5129243;27;20039;-65
2023/04/29 01:03:26;;;;;;;19.85;8.00;;;;;;;;;;5111701;27;20069;-66
2023/04/29 01:06:02;;;;;;;18.65;7.85;;;;;;;;;;5130068;27;20081;-65
2023/04/29 01:08:34;;;;;;;22.85;8.70;;;;;;;;;;5129081;27;20132;-66
2023/04/29 01:11:08;;;;;;;14.77;7.65;;;;;;;;;;5127427;27;20047;-65
2023/04/29 01:13:38;;;;;;;13.63;7.80;;;;;;;;;;5127841;27;20047;-65
2023/04/29 01:16:10;;;;;;;18.13;9.38;;;;;;;;;;5125332;27;20543;-66
2023/04/29 01:18:40;;;;;;;18.85;9.07;;;;;;;;;;5130149;27;20470;-66
2023/04/29 01:21:07;;;;;;;15.63;8.55;;;;;;;;;;5129353;27;20043;-66
2023/04/29 01:23:36;;;;;;;18.85;10.27;;;;;;;;;;5127332;27;20050;-65
2023/04/29 01:26:04;;;;;;;22.13;10.40;;;;;;;;;;5129216;27;20055;-65
2023/04/29 01:28:39;;;;;;;19.83;11.70;;;;;;;;;;5130708;27;20047;-66
2023/04/29 01:31:09;;;;;;;21.23;10.90;;;;;;;;;;5129402;27;20116;-66
2023/04/29 01:33:41;;;;;;;23.17;11.30;;;;;;;;;;5130332;27;20047;-65
2023/04/29 01:36:15;;;;;;;26.17;11.68;;;;;;;;;;5124329;27;20062;-65
2023/04/29 01:38:46;;;;;;;22.75;10.68;;;;;;;;;;5106250;28;20081;-66
2023/04/29 01:41:15;;;;;;;21.65;10.25;;;;;;;;;;5123557;27;20078;-66
2023/04/29 01:43:43;;;;;;;19.02;9.68;;;;;;;;;;5128941;27;20047;-65
2023/04/29 01:46:11;;;;;;;23.33;9.82;;;;;;;;;;5128728;27;20058;-65
2023/04/29 01:48:39;;;;;;;22.13;9.63;;;;;;;;;;5126210;27;20047;-65
2023/04/29 01:51:06;;;;;;;21.92;9.23;;;;;;;;;;5125099;27;20115;-65
2023/04/29 01:53:34;;;;;;;18.35;9.70;;;;;;;;;;5107974;28;20048;-65
2023/04/29 01:56:02;;;;;;;20.75;8.20;;;;;;;;;;5127870;27;20498;-65
2023/04/29 01:58:29;;;;;;;15.07;8.20;;;;;;;;;;5129245;27;20498;-66
2023/04/29 02:00:57;;;;;;;14.10;7.30;;;;;;;;;;5129658;27;20051;-66
2023/04/29 02:03:24;;;;;;;17.42;7.93;;;;;;;;;;5129602;27;20058;-66
2023/04/29 02:05:51;;;;;;;14.63;7.63;;;;;;;;;;5128123;27;20047;-65
2023/04/29 02:08:19;;;;;;;15.75;7.70;;;;;;;;;;5128031;27;20502;-66
2023/04/29 02:10:52;;;;;;;16.17;7.97;;;;;;;;;;5129840;27;20051;-66
2023/04/29 02:13:21;;;;;;;17.90;8.52;;;;;;;;;;5128272;27;20078;-66
2023/04/29 02:15:48;;;;;;;16.48;8.10;;;;;;;;;;5128354;27;20039;-66
2023/04/29 02:18:15;;;;;;;17.33;8.52;;;;;;;;;;5117970;27;20088;-65
2023/04/29 02:20:43;;;;;;;14.70;8.25;;;;;;;;;;5125653;27;20071;-66
2023/04/29 02:23:10;;;;;;;19.20;8.50;;;;;;;;;;5127448;27;20048;-65
2023/04/29 02:25:37;;;;;;;18.77;8.45;;;;;;;;;;5108431;28;20451;-66
2023/04/29 02:28:05;;;;;;;16.55;7.78;;;;;;;;;;5127767;27;20047;-66
2023/04/29 02:30:33;;;;;;;15.35;7.85;;;;;;;;;;5125466;27;20055;-66
2023/04/29 02:33:00;;;;;;;15.30;7.75;;;;;;;;;;5127918;27;20051;-65
2023/04/29 02:35:28;;;;;;;21.98;7.70;;;;;;;;;;5109101;27;20047;-66
2023/04/29 02:37:55;;;;;;;16.30;7.95;;;;;;;;;;5107893;27;20043;-66
2023/04/29 02:40:24;;;;;;;17.00;7.90;;;;;;;;;;5124941;27;20494;-66
2023/04/29 02:42:51;;;;;;;15.07;7.30;;;;;;;;;;5109216;27;20079;-66
2023/04/29 02:45:19;;;;;;;17.52;7.25;;;;;;;;;;5124563;27;20055;-65
2023/04/29 02:47:47;;;;;;;17.90;8.50;;;;;;;;;;5121122;27;20047;-66
2023/04/29 02:50:14;;;;;;;17.48;7.60;;;;;;;;;;5123007;27;20059;-66
2023/04/29 02:52:42;;;;;;;18.90;8.57;;;;;;;;;;5122164;27;20062;-66
2023/04/29 02:55:09;;;;;;;16.88;7.47;;;;;;;;;;5128830;27;20050;-66
2023/04/29 02:57:36;;;;;;;16.30;7.90;;;;;;;;;;5128831;27;20055;-65
2023/04/29 03:00:04;;;;;;;19.52;8.50;;;;;;;;;;5127901;27;20063;-66
2023/04/29 03:02:31;;;;;;;16.42;7.57;;;;;;;;;;5124594;27;20047;-66
2023/04/29 03:05:00;;;;;;;17.83;8.40;;;;;;;;;;5127572;27;20062;-66
2023/04/29 03:07:28;;;;;;;20.27;8.55;;;;;;;;;;5126804;27;20046;-66
2023/04/29 03:09:56;;;;;;;18.15;8.93;;;;;;;;;;5128718;27;20771;-66
2023/04/29 03:12:23;;;;;;;19.55;8.98;;;;;;;;;;5126594;27;20047;-65
2023/04/29 03:14:51;;;;;;;21.10;9.13;;;;;;;;;;5125133;27;20047;-65
2023/04/29 03:17:19;;;;;;;16.60;8.30;;;;;;;;;;5126801;27;20055;-66
2023/04/29 03:19:46;;;;;;;19.77;7.82;;;;;;;;;;5128543;27;20050;-66
2023/04/29 03:22:15;;;;;;;16.67;6.68;;;;;;;;;;5115705;28;20043;-66
2023/04/29 03:24:42;;;;;;;17.38;6.43;;;;;;;;;;5127697;27;20047;-66
2023/04/29 03:27:10;;;;;;;15.88;6.18;;;;;;;;;;5127243;27;20047;-66
2023/04/29 03:29:37;;;;;;;15.30;5.70;;;;;;;;;;5128411;27;20494;-66
2023/04/29 03:32:04;;;;;;;14.32;5.28;;;;;;;;;;5126649;27;20051;-66
2023/04/29 03:34:31;;;;;;;14.68;5.30;;;;;;;;;;5128507;27;20069;-66
2023/04/29 03:37:00;;;;;;;12.02;4.75;;;;;;;;;;5127799;27;20435;-66
2023/04/29 03:39:31;;;;;;;15.07;4.93;;;;;;;;;;5127806;27;20043;-66
2023/04/29 03:41:58;;;;;;;11.93;4.78;;;;;;;;;;5127236;27;20047;-66
2023/04/29 03:44:25;;;;;;;10.18;4.65;;;;;;;;;;5127018;27;20486;-66
2023/04/29 03:46:53;;;;;;;12.85;5.00;;;;;;;;;;5109755;28;20128;-65
2023/04/29 03:49:20;;;;;;;13.95;4.78;;;;;;;;;;5126018;27;20043;-66
2023/04/29 03:51:47;;;;;;;10.63;4.60;;;;;;;;;;5120101;27;20055;-66
2023/04/29 03:54:14;;;;;;;11.05;4.93;;;;;;;;;;5129018;27;20081;-66
2023/04/29 03:56:43;;;;;;;11.50;4.70;;;;;;;;;;5105674;28;20051;-65
2023/04/29 03:59:10;;;;;;;16.27;4.65;;;;;;;;;;5131854;27;20506;-66
2023/04/29 04:01:38;;;;;;;9.80;4.45;;;;;;;;;;5131574;27;20050;-66
2023/04/29 04:04:05;;;;;;;10.35;4.53;;;;;;;;;;5130045;27;20055;-65
2023/04/29 04:06:32;;;;;;;10.13;4.70;;;;;;;;;;5131414;27;20047;-66
2023/04/29 04:09:00;;;;;;;14.60;4.75;;;;;;;;;;5112658;27;20055;-66
2023/04/29 04:11:27;;;;;;;8.63;4.15;;;;;;;;;;5129970;27;20489;-66
2023/04/29 04:13:56;;;;;;;8.90;4.07;;;;;;;;;;5129093;27;20047;-66
2023/04/29 04:16:23;;;;;;;11.70;3.80;;;;;;;;;;5127763;27;20481;-66
2023/04/29 04:18:50;;;;;;;7.70;3.40;;;;;;;;;;5109820;27;20206;-65
2023/04/29 04:21:17;;;;;;;7.43;3.60;;;;;;;;;;5130885;27;20047;-65
2023/04/29 04:23:45;;;;;;;9.63;3.75;;;;;;;;;;5108949;27;20055;-66
2023/04/29 04:26:12;;;;;;;9.70;3.80;;;;;;;;;;5130256;27;20054;-65
2023/04/29 04:28:39;;;;;;;11.57;3.22;;;;;;;;;;5129894;27;20043;-65
2023/04/29 04:31:08;;;;;;;8.98;3.60;;;;;;;;;;5131650;27;21360;-65
2023/04/29 04:33:35;;;;;;;9.68;3.53;;;;;;;;;;5107993;28;20134;-66
2023/04/29 04:36:02;;;;;;;5.85;3.22;;;;;;;;;;5130594;27;20047;-65
2023/04/29 04:38:31;;;;;;;14.02;3.80;;;;;;;;;;5107560;28;20047;-66
2023/04/29 04:40:59;;;;;;;9.77;3.28;;;;;;;;;;5128951;27;20051;-66
2023/04/29 04:43:26;;;;;;;13.20;5.40;;;;;;;;;;5129535;27;20043;-65
2023/04/29 04:45:54;;;;;;;8.45;3.85;;;;;;;;;;5130056;27;20100;-66
2023/04/29 04:48:22;;;;;;;9.95;4.10;;;;;;;;;;5127184;27;20039;-65
2023/04/29 04:50:49;;;;;;;6.85;3.88;;;;;;;;;;5123064;27;20406;-65
2023/04/29 04:53:17;;;;;;;10.30;3.65;;;;;;;;;;5129256;27;20127;-65
2023/04/29 04:55:45;;;;;;;7.07;3.85;;;;;;;;;;5129175;27;20646;-66
2023/04/29 04:58:12;;;;;;;5.78;3.53;;;;;;;;;;5128257;27;20039;-65
2023/04/29 05:00:44;;;;;;;8.23;3.70;;;;;;;;;;5128691;27;20486;-66
2023/04/29 05:03:11;;;;;;;14.02;5.45;;;;;;;;;;5130579;27;20079;-65
2023/04/29 05:05:40;;;;;;;11.50;6.25;;;;;;;;;;5128247;27;20050;-65
2023/04/29 05:08:07;;;;;;;8.55;4.45;;;;;;;;;;5131096;27;20051;-66
2023/04/29 05:10:36;;;;;;;8.10;4.03;;;;;;;;;;5129424;27;20487;-65
2023/04/29 05:13:03;;;;;;;8.10;3.83;;;;;;;;;;5126121;27;20135;-66
2023/04/29 05:15:31;;;;;;;8.43;3.78;;;;;;;;;;5128339;27;20058;-66
2023/04/29 05:17:58;;;;;;;9.48;3.60;;;;;;;;;;5120591;27;20065;-66
2023/04/29 05:20:26;;;;;;;10.95;4.00;;;;;;;;;;5119542;27;20047;-65
2023/04/29 05:22:55;;;;;;;8.63;3.55;;;;;;;;;;5116677;27;20130;-66
2023/04/29 05:25:22;;;;;;;10.73;3.55;;;;;;;;;;5116125;27;20086;-66
2023/04/29 05:27:50;;;;;;;9.70;3.83;;;;;;;;;;5116253;27;20047;-65
2023/04/29 05:30:17;;;;;;;12.27;4.75;;;;;;;;;;5111996;27;20506;-66
2023/04/29 05:32:45;;;;;;;6.05;3.88;;;;;;;;;;5112586;27;20422;-65
2023/04/29 05:35:12;;;;;;;9.88;4.22;;;;;;;;;;5124752;27;20490;-66
2023/04/29 05:37:39;;;;;;;10.43;3.40;;;;;;;;;;5110693;27;20047;-66
2023/04/29 05:40:09;;;;;;;12.65;4.60;;;;;;;;;;5119323;27;20524;-66
2023/04/29 05:42:36;;;;;;;10.18;3.92;;;;;;;;;;5118431;27;20051;-66
2023/04/29 05:45:04;;;;;;;9.70;3.65;;;;;;;;;;5118451;27;20047;-66
2023/04/29 05:47:31;;;;;;;11.35;5.10;;;;;;;;;;5121010;27;20505;-65
2023/04/29 05:49:59;;;;;;;7.18;4.07;;;;;;;;;;5111623;27;20066;-65
2023/04/29 05:52:26;;;;;;;10.45;4.45;;;;;;;;;;5115400;27;20056;-65
2023/04/29 05:54:54;;;;;;;8.65;5.32;;;;;;;;;;5112796;27;20513;-66
2023/04/29 05:57:22;;;;;;;11.25;4.57;;;;;;;;;;5109947;27;20046;-66
2023/04/29 05:59:49;;;;;;;9.13;4.07;;;;;;;;;;5106520;27;20040;-66
2023/04/29 06:02:17;;;;;;;11.48;4.18;;;;;;;;;;5109080;27;20086;-65
2023/04/29 06:04:46;;;;;;;10.10;3.55;;;;;;;;;;5105147;27;20059;-65
2023/04/29 06:07:13;;;;;;;11.68;5.45;;;;;;;;;;5113563;27;20082;-66
2023/04/29 06:09:41;;;;;;;14.05;4.88;;;;;;;;;;5117044;27;20051;-66
2023/04/29 06:12:08;;;;;;;9.90;3.88;;;;;;;;;;5106587;27;20086;-66
2023/04/29 06:14:37;;;;;;;10.88;4.05;;;;;;;;;;5111594;27;20120;-66
2023/04/29 06:17:04;;;;;;;6.20;3.17;;;;;;;;;;5116549;27;20055;-66
2023/04/29 06:19:32;;;;;;;6.47;2.97;;;;;;;;;;5128181;27;20108;-66
2023/04/29 06:22:00;;;;;;;9.23;3.28;;;;;;;;;;5123706;27;20047;-66
2023/04/29 06:24:27;;;;;;;6.63;2.47;;;;;;;;;;5121398;27;20133;-66
2023/04/29 06:26:54;;;;;;;10.93;4.00;;;;;;;;;;5116336;27;20447;-65
2023/04/29 06:29:21;;;;;;;15.40;3.88;;;;;;;;;;5126353;27;20047;-66
2023/04/29 06:31:50;;;;;;;11.43;3.63;;;;;;;;;;5122923;27;20379;-66
2023/04/29 06:34:18;;;;;;;13.45;5.40;;;;;;;;;;5126880;27;20047;-66
2023/04/29 06:36:45;;;;;;;12.15;4.55;;;;;;;;;;5127383;27;20039;-66
2023/04/29 06:39:12;;;;;;;7.85;3.13;;;;;;;;;;5109880;27;20070;-65
2023/04/29 06:41:40;;;;;;;15.85;5.32;;;;;;;;;;5127602;27;20424;-66
2023/04/29 06:44:07;;;;;;;6.70;2.78;;;;;;;;;;5128016;27;20051;-66
2023/04/29 06:46:34;;;;;;;6.35;2.97;;;;;;;;;;5128191;27;20065;-66
2023/04/29 06:49:03;;;;;;;9.45;4.28;;;;;;;;;;5124366;27;20059;-66
2023/04/29 06:51:31;;;;;;;10.15;4.45;;;;;;;;;;5119192;27;20050;-66
2023/04/29 06:53:58;;;;;;;8.18;3.40;;;;;;;;;;5128581;27;20043;-66
2023/04/29 06:56:25;;;;;;;13.18;3.88;;;;;;;;;;5126561;27;20040;-66
2023/04/29 06:58:53;;;;;;;5.90;2.67;;;;;;;;;;5128084;27;20075;-66
2023/04/29 07:01:20;;;;;;;9.95;3.25;;;;;;;;;;5128936;27;20118;-66
2023/04/29 07:03:47;;;;;;;4.57;2.25;;;;;;;;;;5128543;27;20047;-66
2023/04/29 07:06:16;;;;;;;6.65;2.47;;;;;;;;;;5126080;27;20378;-66
2023/04/29 07:08:43;;;;;;;7.85;2.47;;;;;;;;;;5129238;27;20043;-66
2023/04/29 07:11:10;;;;;;;6.25;2.97;;;;;;;;;;5127612;27;20158;-66
2023/04/29 07:13:38;;;;;;;5.32;2.70;;;;;;;;;;5129241;27;20403;-66
2023/04/29 07:16:05;;;;;;;9.10;3.72;;;;;;;;;;5125776;27;20055;-66
2023/04/29 07:18:32;;;;;;;10.55;4.03;;;;;;;;;;5123180;27;20058;-66
2023/04/29 07:21:01;;;;;;;9.02;4.30;;;;;;;;;;5108564;27;20047;-66
2023/04/29 07:23:30;;;;;;;10.18;4.53;;;;;;;;;;5108819;28;20404;-66
2023/04/29 07:25:57;;;;;;;8.60;2.67;;;;;;;;;;5127282;27;20062;-66
2023/04/29 07:28:24;;;;;;;6.90;2.30;;;;;;;;;;5127720;27;20414;-66
2023/04/29 07:30:52;;;;;;;8.98;2.47;;;;;;;;;;5128553;27;20043;-66
2023/04/29 07:33:19;;;;;;;7.40;2.65;;;;;;;;;;5130783;27;20047;-66
2023/04/29 07:35:46;;;;;;;4.35;2.15;;;;;;;;;;5133558;27;20137;-66
2023/04/29 07:38:14;;;;;;;4.05;2.50;;;;;;;;;;5131889;27;20402;-66
2023/04/29 07:40:43;;;;;;;7.95;2.13;;;;;;;;;;5132886;27;20062;-66
2023/04/29 07:43:11;;;;;;;4.85;2.25;;;;;;;;;;5112894;27;20051;-66
2023/04/29 07:45:40;;;;;;;5.78;2.50;;;;;;;;;;5133136;27;21365;-66
2023/04/29 07:48:07;;;;;;;5.90;2.28;;;;;;;;;;5126998;27;20055;-66
2023/04/29 07:50:35;;;;;;;6.60;2.70;;;;;;;;;;5132281;27;20047;-66
2023/04/29 07:53:03;;;;;;;8.38;2.88;;;;;;;;;;5131598;27;20047;-66
2023/04/29 07:55:30;;;;;;;10.20;2.72;;;;;;;;;;5132214;27;20054;-66
2023/04/29 07:57:59;;;;;;;8.15;2.83;;;;;;;;;;5128504;27;20051;-66
2023/04/29 08:00:27;;;;;;;5.55;2.42;;;;;;;;;;5126565;27;20055;-66
2023/04/29 08:02:54;;;;;;;7.63;2.97;;;;;;;;;;5130826;27;20130;-66
2023/04/29 08:05:21;;;;;;;7.18;2.55;;;;;;;;;;5131796;27;20057;-66
2023/04/29 08:07:49;;;;;;;8.05;3.13;;;;;;;;;;5130077;27;20074;-66
2023/04/29 08:10:16;;;;;;;7.63;3.60;;;;;;;;;;5133312;27;20046;-66
2023/04/29 08:12:46;;;;;;;3.72;2.40;;;;;;;;;;5129877;27;20054;-66
2023/04/29 08:15:15;;;;;;;7.85;2.60;;;;;;;;;;5111800;27;20141;-66
2023/04/29 08:17:42;;;;;;;6.57;2.97;;;;;;;;;;5122940;27;20103;-66
2023/04/29 08:20:10;;;;;;;5.30;2.65;;;;;;;;;;5105518;27;20142;-66
2023/04/29 08:22:37;;;;;;;5.30;2.80;;;;;;;;;;5112544;27;20478;-66
2023/04/29 08:25:05;;;;;;;5.22;2.25;;;;;;;;;;5109424;27;20055;-66
2023/04/29 08:27:32;;;;;;;7.78;2.78;;;;;;;;;;5102398;27;20059;-67
2023/04/29 08:29:59;;;;;;;4.15;2.83;;;;;;;;;;5116189;27;20039;-66
2023/04/29 08:32:28;;;;;;;8.57;3.15;;;;;;;;;;5125992;27;20084;-66
2023/04/29 08:34:55;;;;;;;6.93;2.78;;;;;;;;;;5118971;27;20043;-66
2023/04/29 08:37:23;;;;;;;6.28;2.95;;;;;;;;;;5124508;27;20572;-66
2023/04/29 08:39:50;;;;;;;5.07;2.85;;;;;;;;;;5115651;27;20116;-66
2023/04/29 08:42:19;;;;;;;6.60;2.58;;;;;;;;;;5122819;27;20490;-66
2023/04/29 08:44:46;;;;;;;4.47;2.40;;;;;;;;;;5118851;27;20066;-66
2023/04/29 08:47:15;;;;;;;4.70;2.63;;;;;;;;;;5106556;27;20067;-66
2023/04/29 08:49:43;;;;;;;7.35;2.67;;;;;;;;;;5104280;27;20050;-66
2023/04/29 08:52:11;;;;;;;6.40;2.38;;;;;;;;;;5108598;27;20456;-66
2023/04/29 08:54:38;;;;;;;5.85;2.70;;;;;;;;;;5112625;27;20052;-66
2023/04/29 08:57:06;;;;;;;7.80;3.20;;;;;;;;;;5115772;27;20050;-66
2023/04/29 08:59:34;;;;;;;8.55;2.22;;;;;;;;;;5110591;27;20073;-66
2023/04/29 09:02:01;;;;;;;3.95;2.22;;;;;;;;;;5110016;27;20081;-67
2023/04/29 09:04:35;;;;;;;5.68;2.67;;;;;;;;;;5112275;27;20058;-66
2023/04/29 09:07:04;;;;;;;3.13;1.92;;;;;;;;;;5105639;27;20054;-66
2023/04/29 09:09:32;;;;;;;5.38;2.03;;;;;;;;;;5118973;27;20106;-67
2023/04/29 09:11:59;;;;;;;3.70;1.73;;;;;;;;;;5116318;27;20044;-66
2023/04/29 09:14:27;;;;;;;4.45;1.98;;;;;;;;;;5109310;27;20192;-67
2023/04/29 09:16:54;;;;;;;4.57;1.90;;;;;;;;;;5115060;27;20050;-66
2023/04/29 09:19:30;;;;;;;2.72;1.60;;;;;;;;;;5125041;27;20047;-67
2023/04/29 09:21:57;;;;;;;4.97;1.90;;;;;;;;;;5127722;27;20134;-66
2023/04/29 09:24:27;;;;;;;5.10;1.70;;;;;;;;;;5129864;27;20043;-67
2023/04/29 09:26:55;;;;;;;2.72;1.42;;;;;;;;;;5119660;27;20049;-66
2023/04/29 09:29:22;;;;;;;3.78;1.63;;;;;;;;;;5131448;27;20127;-67
2023/04/29 09:31:52;;;;;;;5.82;1.67;;;;;;;;;;5127062;27;20113;-66
2023/04/29 09:34:31;;;;;;;2.15;1.00;;;;;;;;;;5130654;27;20138;-67
2023/04/29 09:36:58;;;;;;;1.63;1.13;;;;;;;;;;5123202;27;20088;-67
2023/04/29 09:39:26;;;;;;;2.28;1.33;;;;;;;;;;5119164;27;20478;-66
2023/04/29 09:42:01;;;;;;;6.13;1.63;;;;;;;;;;5125453;27;20043;-67
2023/04/29 09:44:30;;;;;;;3.13;1.25;;;;;;;;;;5123025;27;20047;-66
2023/04/29 09:46:58;;;;;;;1.92;1.10;;;;;;;;;;5120277;27;20058;-67
2023/04/29 09:49:26;;;;;;;2.85;1.10;;;;;;;;;;5122190;27;20093;-66
2023/04/29 09:51:54;;;;;;;3.15;1.15;;;;;;;;;;5103996;27;20053;-66
2023/04/29 09:54:22;;;;;;;3.45;1.33;;;;;;;;;;5127120;27;20039;-67
2023/04/29 09:56:51;;;;;;;6.60;1.30;;;;;;;;;;5128603;27;20078;-67
2023/04/29 09:59:18;;;;;;;3.40;1.10;;;;;;;;;;5128686;27;20042;-66
2023/04/29 10:01:47;;;;;;;1.95;1.00;;;;;;;;;;5130520;27;20039;-67
2023/04/29 10:04:16;;;;;;;2.75;1.30;;;;;;;;;;5125942;27;20375;-67
2023/04/29 10:06:44;;;;;;;2.97;1.02;;;;;;;;;;5129528;27;20043;-67
2023/04/29 10:09:16;;;;;;;4.63;1.00;;;;;;;;;;5129964;27;20073;-67
2023/04/29 10:11:43;;;;;;;3.00;1.10;;;;;;;;;;5111553;27;20055;-66
2023/04/29 10:14:14;;;;;;;1.95;0.90;;;;;;;;;;5125319;27;20135;-67
2023/04/29 10:16:46;;;;;;;1.55;0.95;;;;;;;;;;5128785;27;20111;-67
2023/04/29 10:19:16;;;;;;;3.57;1.10;;;;;;;;;;5113080;27;20054;-66
2023/04/29 10:21:44;;;;;;;1.52;0.90;;;;;;;;;;5122812;27;20055;-67
2023/04/29 10:24:12;;;;;;;2.63;1.25;;;;;;;;;;5119209;27;20051;-67
2023/04/29 10:26:40;;;;;;;1.58;1.17;;;;;;;;;;5113490;27;20054;-67
2023/04/29 10:29:09;;;;;;;3.33;1.20;;;;;;;;;;5116567;27;20458;-67
2023/04/29 10:31:38;;;;;;;2.70;1.10;;;;;;;;;;5117961;27;20095;-67
2023/04/29 10:34:05;;;;;;;1.45;0.88;;;;;;;;;;5122451;27;20159;-67
2023/04/29 10:36:34;;;;;;;4.57;0.98;;;;;;;;;;5114625;27;20052;-66
2023/04/29 10:39:04;;;;;;;2.30;0.90;;;;;;;;;;5109130;27;20514;-67
2023/04/29 10:41:35;;;;;;;1.38;0.70;;;;;;;;;;5109122;27;20434;-66
2023/04/29 10:44:03;;;;;;;1.90;0.80;;;;;;;;;;5125277;27;20051;-67
2023/04/29 10:46:30;;;;;;;1.75;0.70;;;;;;;;;;5115745;27;20546;-67
2023/04/29 10:49:01;;;;;;;2.33;0.90;;;;;;;;;;5110014;27;20058;-67
2023/04/29 10:51:31;;;;;;;3.00;1.38;;;;;;;;;;5101942;27;20044;-67
2023/04/29 10:53:59;;;;;;;4.35;1.42;;;;;;;;;;5111966;27;20128;-67
2023/04/29 10:56:36;;;;;;;2.83;1.10;;;;;;;;;;5109794;27;20100;-67
2023/04/29 10:59:04;;;;;;;3.28;0.88;;;;;;;;;;5109370;27;20117;-67
2023/04/29 11:01:41;;;;;;;1.35;0.70;;;;;;;;;;5113619;27;20084;-67
2023/04/29 11:04:11;;;;;;;3.10;1.00;;;;;;;;;;5110841;27;20082;-67
2023/04/29 11:06:46;;;;;;;5.93;1.10;;;;;;;;;;5119685;27;20069;-65
2023/04/29 11:09:14;;;;;;;4.55;0.90;;;;;;;;;;5110680;27;20127;-67
2023/04/29 11:11:47;;;;;;;2.15;1.05;;;;;;;;;;5112071;27;20055;-67
2023/04/29 11:14:15;;;;;;;2.10;0.70;;;;;;;;;;5127055;27;20074;-67
2023/04/29 11:16:49;;;;;;;2.58;1.10;;;;;;;;;;5111767;28;21305;-67
2023/04/29 11:19:17;;;;;;;2.25;0.90;;;;;;;;;;5128548;27;20047;-67
2023/04/29 11:21:46;;;;;;;3.20;1.00;;;;;;;;;;5127806;27;20063;-67
2023/04/29 11:24:14;;;;;;;2.67;1.02;;;;;;;;;;5127163;27;20059;-67
2023/04/29 11:26:43;;;;;;;7.43;1.10;;;;;;;;;;5101451;27;20522;-67
2023/04/29 11:29:10;;;;;;;1.55;0.70;;;;;;;;;;5128365;27;20074;-67
2023/04/29 11:31:38;;;;;;;2.83;0.85;;;;;;;;;;5109795;27;20058;-67
2023/04/29 11:34:06;;;;;;;3.45;0.90;;;;;;;;;;5128127;27;20404;-65
2023/04/29 11:36:35;;;;;;;1.67;0.90;;;;;;;;;;5127724;27;20061;-66
2023/04/29 11:39:03;;;;;;;2.10;0.90;;;;;;;;;;5127215;27;20387;-65
2023/04/29 11:41:31;;;;;;;4.53;0.80;;;;;;;;;;5127113;27;20490;-65
2023/04/29 11:43:59;;;;;;;1.73;0.80;;;;;;;;;;5128107;27;20096;-66
2023/04/29 11:46:27;;;;;;;2.38;1.13;;;;;;;;;;5110369;28;20091;-66
2023/04/29 11:48:55;;;;;;;3.10;0.90;;;;;;;;;;5124825;27;20039;-66
2023/04/29 11:51:22;;;;;;;3.45;1.10;;;;;;;;;;5121926;27;20115;-65
2023/04/29 11:53:52;;;;;;;2.25;0.90;;;;;;;;;;5107069;28;20486;-66
2023/04/29 11:56:23;;;;;;;2.42;1.10;;;;;;;;;;5127326;27;20131;-66
2023/04/29 11:58:50;;;;;;;2.78;1.10;;;;;;;;;;5125875;27;20079;-66
2023/04/29 12:01:17;;;;;;;1.25;0.80;;;;;;;;;;5124750;27;20047;-66
2023/04/29 12:03:45;;;;;;;3.35;1.00;;;;;;;;;;5128158;27;20490;-66
2023/04/29 12:06:14;;;;;;;1.75;0.70;;;;;;;;;;5124051;27;20078;-66
2023/04/29 12:08:42;;;;;;;3.70;1.00;;;;;;;;;;5126053;27;20043;-66
2023/04/29 12:11:10;;;;;;;1.13;0.80;;;;;;;;;;5123970;27;20108;-65
2023/04/29 12:13:38;;;;;;;1.30;0.90;;;;;;;;;;5128109;27;20044;-66
2023/04/29 12:16:05;;;;;;;1.52;0.80;;;;;;;;;;5125314;27;20059;-66
2023/04/29 12:18:33;;;;;;;1.45;0.95;;;;;;;;;;5110812;27;20091;-66
2023/04/29 12:21:00;;;;;;;1.98;0.75;;;;;;;;;;5129743;27;20057;-66
2023/04/29 12:23:28;;;;;;;2.95;0.80;;;;;;;;;;5129757;27;20047;-66
2023/04/29 12:25:56;;;;;;;0.77;0.75;;;;;;;;;;5131362;27;20057;-66
2023/04/29 12:28:25;;;;;;;2.40;0.90;;;;;;;;;;5130889;27;20390;-66
2023/04/29 12:30:53;;;;;;;1.50;0.90;;;;;;;;;;5130959;27;20051;-66
2023/04/29 12:33:21;;;;;;;1.10;0.80;;;;;;;;;;5129121;27;20058;-66
2023/04/29 12:35:50;;;;;;;1.23;0.90;;;;;;;;;;5112958;27;20053;-66
2023/04/29 12:38:20;;;;;;;3.00;0.77;;;;;;;;;;5112028;27;20138;-66
2023/04/29 12:40:49;;;;;;;2.92;0.85;;;;;;;;;;5112101;27;20494;-66
2023/04/29 12:43:17;;;;;;;1.45;0.80;;;;;;;;;;5112098;27;20055;-66
2023/04/29 12:45:46;;;;;;;2.35;0.98;;;;;;;;;;5112074;27;20075;-66
2023/04/29 12:48:13;;;;;;;2.47;1.02;;;;;;;;;;5130158;27;20061;-66
2023/04/29 12:50:41;;;;;;;1.45;0.75;;;;;;;;;;5129829;27;20039;-66
2023/04/29 12:53:09;;;;;;;3.80;0.90;;;;;;;;;;5126314;27;20058;-66
2023/04/29 12:55:37;;;;;;;1.67;1.08;;;;;;;;;;5131256;27;20087;-66
2023/04/29 12:58:06;;;;;;;5.80;1.10;;;;;;;;;;5123276;27;20054;-66
2023/04/29 13:00:36;;;;;;;1.33;1.00;;;;;;;;;;5130450;27;20088;-66
2023/04/29 13:03:05;;;;;;;2.38;1.25;;;;;;;;;;5128521;27;20046;-67
2023/04/29 13:05:32;;;;;;;2.40;1.20;;;;;;;;;;5129164;27;20096;-66
2023/04/29 13:07:59;;;;;;;2.35;1.20;;;;;;;;;;5108850;27;20126;-66
2023/04/29 13:10:27;;;;;;;2.22;1.10;;;;;;;;;;5130481;27;20055;-66
2023/04/29 13:12:55;;;;;;;2.28;1.13;;;;;;;;;;5124330;27;20048;-66
2023/04/29 13:15:23;;;;;;;1.63;1.25;;;;;;;;;;5125355;27;20079;-66
2023/04/29 13:17:50;;;;;;;3.97;1.45;;;;;;;;;;5107732;27;20052;-66
2023/04/29 13:20:19;;;;;;;2.33;1.70;;;;;;;;;;5128142;27;20043;-66
2023/04/29 13:22:47;;;;;;;2.97;1.52;;;;;;;;;;5130180;27;20047;-66
2023/04/29 13:25:14;;;;;;;3.88;1.90;;;;;;;;;;5127828;27;20053;-71
2023/04/29 13:27:42;;;;;;;4.35;1.75;;;;;;;;;;5130691;27;20054;-71
2023/04/29 13:30:10;;;;;;;3.50;2.00;;;;;;;;;;5128779;27;20055;-71
2023/04/29 13:32:38;;;;;;;4.65;2.55;;;;;;;;;;5129867;27;20351;-72
2023/04/29 13:35:06;;;;;;;3.28;2.00;;;;;;;;;;5127850;27;20063;-71
2023/04/29 13:37:35;;;;;;;3.65;2.35;;;;;;;;;;5129599;27;20429;-71
2023/04/29 13:40:03;;;;;;;3.40;2.42;;;;;;;;;;5128894;27;20062;-71
2023/04/29 13:42:30;;;;;;;4.00;2.40;;;;;;;;;;5130527;27;20043;-71
2023/04/29 13:44:58;;;;;;;3.78;2.38;;;;;;;;;;5128700;27;20039;-71
2023/04/29 13:47:25;;;;;;;3.78;2.30;;;;;;;;;;5130654;27;20410;-71
2023/04/29 13:49:53;;;;;;;4.38;2.40;;;;;;;;;;5126198;27;20070;-72
2023/04/29 13:52:20;;;;;;;3.22;2.30;;;;;;;;;;5130570;27;20047;-71
2023/04/29 13:54:49;;;;;;;4.55;2.67;;;;;;;;;;5125315;27;20066;-71
2023/04/29 13:57:16;;;;;;;3.65;2.20;;;;;;;;;;5129977;27;20122;-71
2023/04/29 13:59:43;;;;;;;4.75;2.33;;;;;;;;;;5127283;27;20043;-71
2023/04/29 14:02:12;;;;;;;5.35;2.78;;;;;;;;;;5128686;27;20043;-71
2023/04/29 14:04:40;;;;;;;4.13;2.33;;;;;;;;;;5127059;27;20072;-71
2023/04/29 14:07:07;;;;;;;6.38;2.47;;;;;;;;;;5129581;27;20490;-71
2023/04/29 14:09:34;;;;;;;4.82;2.20;;;;;;;;;;5111826;27;20449;-71
2023/04/29 14:12:03;;;;;;;4.43;2.70;;;;;;;;;;5128091;27;20051;-71
2023/04/29 14:14:30;;;;;;;4.85;2.70;;;;;;;;;;5128554;27;20537;-71
2023/04/29 14:16:57;;;;;;;4.10;2.53;;;;;;;;;;5122672;27;20394;-71
2023/04/29 14:19:25;;;;;;;4.90;3.00;;;;;;;;;;5129256;27;20100;-71
2023/04/29 14:21:52;;;;;;;3.47;2.45;;;;;;;;;;5128115;27;20451;-71
2023/04/29 14:24:19;;;;;;;4.32;2.33;;;;;;;;;;5111004;27;20494;-71
2023/04/29 14:26:46;;;;;;;4.25;3.10;;;;;;;;;;5127801;27;20055;-71
2023/04/29 14:29:15;;;;;;;5.18;2.47;;;;;;;;;;5129406;27;20730;-71
2023/04/29 14:31:42;;;;;;;5.25;2.67;;;;;;;;;;5124879;27;20047;-71
2023/04/29 14:34:10;;;;;;;4.97;2.40;;;;;;;;;;5128116;27;20486;-71
2023/04/29 14:36:37;;;;;;;4.30;2.40;;;;;;;;;;5109080;27;20047;-71
2023/04/29 14:39:04;;;;;;;3.25;2.28;;;;;;;;;;5110962;27;20102;-71
2023/04/29 14:41:31;;;;;;;4.75;2.50;;;;;;;;;;5127991;27;20054;-70
2023/04/29 14:43:59;;;;;;;4.68;2.28;;;;;;;;;;5128476;27;20615;-70